Terminal Aerodrome Forecast
Issued by NWS Bismarck, ND

Home | Current Version | Previous Version | Graphics & Text | Print | Product List | Glossary On
Versions: 1 2 3 4 5 6 7 8 9 10 11 12 13 14 15 16 17 18 19
000
FTUS43 KBIS 272340
TAFISN
TAF
KISN 272340Z 2800/2824 06008KT P6SM VCSH SCT030 BKN080
     FM280200 05007KT P6SM BKN060
     FM281100 VRB03KT P6SM BKN015
     FM281400 09004KT P6SM BKN030
     FM281600 10005KT P6SM BKN050=

USA.gov is the U.S. government's official web portal to all federal, state and local government web resources and services.